createdAt,value
2023-01-15T00:05:15.660Z,5.40
2023-01-15T00:15:22.798Z,4.70
2023-01-15T00:25:47.915Z,5.80
2023-01-15T00:35:55.068Z,6.00
2023-01-15T00:46:02.717Z,3.60
2023-01-15T00:56:10.490Z,3.60
2023-01-15T01:06:18.040Z,4.10
2023-01-15T01:16:26.534Z,3.50
2023-01-15T01:26:34.541Z,4.20
2023-01-15T01:36:43.458Z,4.10
2023-01-15T01:46:50.964Z,4.20
2023-01-15T01:56:58.381Z,3.00
2023-01-15T02:07:07.215Z,3.70
2023-01-15T02:17:12.597Z,3.20
2023-01-15T02:27:20.920Z,4.10
2023-01-15T02:37:29.908Z,3.20
2023-01-15T02:47:38.112Z,4.00
2023-01-15T02:57:48.225Z,4.30
2023-01-15T03:08:00.885Z,4.60
2023-01-15T03:18:11.786Z,5.30
2023-01-15T03:28:23.563Z,4.40
2023-01-15T03:38:32.459Z,4.10
2023-01-15T03:48:45.571Z,4.40
2023-01-15T03:58:50.533Z,4.70
2023-01-15T04:08:59.140Z,3.40
2023-01-15T04:19:06.129Z,3.50
2023-01-15T04:29:12.661Z,3.30
2023-01-15T04:39:19.834Z,3.40
2023-01-15T04:49:26.191Z,3.00
2023-01-15T04:59:33.403Z,2.10
2023-01-15T05:09:40.446Z,3.80
2023-01-15T05:19:47.375Z,2.40
2023-01-15T05:29:54.598Z,1.90
2023-01-15T05:40:01.560Z,2.20
2023-01-15T05:50:08.331Z,2.60
2023-01-15T06:00:17.631Z,2.80
2023-01-15T06:10:24.861Z,2.00
2023-01-15T06:20:32.380Z,3.00
2023-01-15T06:30:41.006Z,3.10
2023-01-15T06:40:47.288Z,3.10
2023-01-15T06:50:53.744Z,2.60
2023-01-15T07:01:00.759Z,3.80
2023-01-15T07:21:12.665Z,3.40
2023-01-15T07:31:19.838Z,2.90
2023-01-15T07:41:44.350Z,5.30
2023-01-15T07:51:51.547Z,5.00
2023-01-15T08:01:57.897Z,5.00
2023-01-15T08:12:24.231Z,3.10
2023-01-15T08:22:31.382Z,4.40
2023-01-15T08:32:38.738Z,4.80
2023-01-15T08:42:45.825Z,6.70
2023-01-15T08:52:53.013Z,4.20
2023-01-15T09:03:00.456Z,4.60
2023-01-15T09:13:07.665Z,5.20
2023-01-15T09:23:14.834Z,4.30
2023-01-15T09:33:21.845Z,5.40
2023-01-15T09:43:30.721Z,6.10
2023-01-15T09:53:41.574Z,6.00
2023-01-15T10:03:47.001Z,4.40
2023-01-15T10:14:01.572Z,4.70
2023-01-15T10:24:10.857Z,4.60
2023-01-15T10:34:27.143Z,5.70
2023-01-15T10:44:35.203Z,6.50
2023-01-15T11:04:51.505Z,6.20
2023-01-15T11:15:16.326Z,6.90
2023-01-15T11:25:28.901Z,11.40
2023-01-15T11:35:36.902Z,10.30
2023-01-15T11:46:05.483Z,9.90
2023-01-15T11:56:13.325Z,11.10
2023-01-15T12:06:23.038Z,11.50
2023-01-15T12:16:28.303Z,8.60
2023-01-15T12:26:39.885Z,9.40
2023-01-15T12:46:55.826Z,8.40
2023-01-15T12:57:03.829Z,8.90
2023-01-15T13:07:08.995Z,10.30
2023-01-15T13:17:20.999Z,10.90
2023-01-15T13:27:43.409Z,9.70
2023-01-15T13:37:54.507Z,8.40
2023-01-15T13:48:05.523Z,9.30
2023-01-15T13:58:23.803Z,12.80
2023-01-15T14:08:28.817Z,12.80
2023-01-15T14:18:58.623Z,9.30
2023-01-15T14:29:08.594Z,9.40
2023-01-15T14:39:23.622Z,8.00
2023-01-15T14:49:33.709Z,13.10
2023-01-15T14:59:44.171Z,11.50
2023-01-15T15:09:57.538Z,9.90
2023-01-15T15:20:04.231Z,8.20
2023-01-15T15:30:14.039Z,12.90
2023-01-15T15:40:21.232Z,8.30
2023-01-15T15:50:29.424Z,10.60
2023-01-15T16:00:41.804Z,10.00
2023-01-15T16:10:49.526Z,11.10
2023-01-15T16:20:57.831Z,8.40
2023-01-15T16:31:05.456Z,6.10
2023-01-15T16:41:22.360Z,5.00
2023-01-15T16:51:35.664Z,6.70
2023-01-15T17:01:43.172Z,7.00
2023-01-15T17:11:50.983Z,5.60
2023-01-15T17:21:58.172Z,4.30
2023-01-15T17:32:04.778Z,4.80
2023-01-15T17:42:17.967Z,4.90
2023-01-15T17:52:25.405Z,6.60
2023-01-15T18:12:56.769Z,9.10
2023-01-15T18:23:03.915Z,6.60
2023-01-15T18:33:11.297Z,9.80
2023-01-15T18:43:35.716Z,12.10
2023-01-15T18:53:42.982Z,9.30
2023-01-15T19:03:50.334Z,10.20
2023-01-15T19:24:20.130Z,12.20
2023-01-15T19:34:34.818Z,8.50
2023-01-15T19:44:59.394Z,8.70
2023-01-15T19:55:07.802Z,16.50
2023-01-15T20:05:16.307Z,15.60
2023-01-15T20:15:22.341Z,15.00
2023-01-15T20:25:30.436Z,17.50
2023-01-15T20:35:37.491Z,14.20
2023-01-15T20:45:44.613Z,7.00
2023-01-15T20:55:57.350Z,6.80
2023-01-15T21:06:05.243Z,7.70
2023-01-15T21:16:13.932Z,6.00
2023-01-15T21:26:21.287Z,5.00
2023-01-15T21:36:28.541Z,7.40
2023-01-15T21:46:35.960Z,9.00
2023-01-15T21:56:45.476Z,9.60
2023-01-15T22:17:00.283Z,6.00
2023-01-15T22:27:09.769Z,5.30
2023-01-15T22:37:16.092Z,4.90
2023-01-15T22:47:23.801Z,5.50
2023-01-15T22:57:31.402Z,7.90
2023-01-15T23:07:39.296Z,7.10
2023-01-15T23:17:47.753Z,6.60
2023-01-15T23:27:54.994Z,5.30
2023-01-15T23:38:02.373Z,5.20
2023-01-15T23:48:07.004Z,5.70
